Time;durP1;ratioP1;P1;durP2;ratioP2;P2;SDS_P1;SDS_P2;PMS_P1;PMS_P2;Temp;Humidity;BMP_temperature;BMP_pressure;BME280_temperature;BME280_humidity;BME280_pressure;Samples;Min_cycle;Max_cycle;Signal;HPM_P1;HPM_P2
2021/06/14 00:01:25;;;;;;;7.97;4.82;;;19.50;99.90;;;;;;5070159;28;20048;-62
2021/06/14 00:03:51;;;;;;;7.47;5.05;;;19.50;99.90;;;;;;5083123;28;20032;-64
2021/06/14 00:06:16;;;;;;;11.70;5.70;;;19.50;99.90;;;;;;5070729;28;20025;-63
2021/06/14 00:08:43;;;;;;;11.15;5.22;;;19.50;99.90;;;;;;5070990;28;20074;-63
2021/06/14 00:11:10;;;;;;;9.70;5.25;;;19.40;99.90;;;;;;5072204;28;20028;-62
2021/06/14 00:13:36;;;;;;;10.25;5.45;;;19.30;99.90;;;;;;5071018;28;20039;-63
2021/06/14 00:16:03;;;;;;;9.60;5.45;;;19.30;99.90;;;;;;5070272;28;20037;-62
2021/06/14 00:18:29;;;;;;;10.25;5.00;;;19.30;99.90;;;;;;5076871;28;20150;-64
2021/06/14 00:20:58;;;;;;;10.43;5.13;;;19.20;99.90;;;;;;5084227;28;20183;-63
2021/06/14 00:23:26;;;;;;;9.95;5.38;;;19.20;99.90;;;;;;5070437;28;20037;-64
2021/06/14 00:25:53;;;;;;;9.25;5.35;;;19.20;99.90;;;;;;5073595;28;20032;-62
2021/06/14 00:28:19;;;;;;;9.82;5.00;;;19.20;99.90;;;;;;5071487;28;20020;-62
2021/06/14 00:30:48;;;;;;;11.27;5.75;;;19.10;99.90;;;;;;5070436;28;20393;-62
2021/06/14 00:33:15;;;;;;;19.50;5.63;;;19.00;99.90;;;;;;5069774;28;20032;-63
2021/06/14 00:35:42;;;;;;;8.95;5.43;;;19.00;99.90;;;;;;5070628;28;20028;-62
2021/06/14 00:38:09;;;;;;;9.18;5.88;;;18.90;99.90;;;;;;5069599;28;20028;-62
2021/06/14 00:40:35;;;;;;;10.77;5.53;;;18.90;99.90;;;;;;5070716;28;20032;-64
2021/06/14 00:43:02;;;;;;;12.23;5.60;;;18.90;99.90;;;;;;5063289;28;20036;-62
2021/06/14 00:45:31;;;;;;;9.40;5.68;;;18.90;99.90;;;;;;5070021;28;20516;-62
2021/06/14 00:47:58;;;;;;;12.27;6.00;;;18.80;99.90;;;;;;5070218;28;20075;-64
2021/06/14 00:50:43;;;;;;;8.32;5.15;;;18.80;99.90;;;;;;5070162;28;20462;-63
2021/06/14 00:53:16;;;;;;;8.85;5.47;;;18.70;99.90;;;;;;5062544;28;20130;-62
2021/06/14 00:55:43;;;;;;;8.95;5.28;;;18.60;99.90;;;;;;5084459;28;20036;-63
2021/06/14 00:58:09;;;;;;;12.60;5.28;;;18.50;99.90;;;;;;5069762;28;20040;-64
2021/06/14 01:00:35;;;;;;;8.27;5.13;;;18.50;99.90;;;;;;5069943;28;20032;-63
2021/06/14 01:03:01;;;;;;;9.50;5.28;;;18.50;99.90;;;;;;5080071;28;20032;-64
2021/06/14 01:05:32;;;;;;;8.90;5.45;;;18.40;99.90;;;;;;5068823;28;20072;-62
2021/06/14 01:07:58;;;;;;;10.00;5.57;;;18.40;99.90;;;;;;5069858;28;20090;-62
2021/06/14 01:10:24;;;;;;;8.35;5.28;;;18.40;99.90;;;;;;5070010;28;20032;-62
2021/06/14 01:13:06;;;;;;;9.75;5.35;;;18.30;99.90;;;;;;5081550;28;20045;-63
2021/06/14 01:15:46;;;;;;;10.43;5.93;;;18.20;99.90;;;;;;5073802;28;20098;-62
2021/06/14 01:18:16;;;;;;;9.02;5.72;;;18.30;99.90;;;;;;5061141;28;20025;-63
2021/06/14 01:20:53;;;;;;;10.52;5.40;;;18.30;99.90;;;;;;5073773;28;20035;-63
2021/06/14 01:23:36;;;;;;;10.35;5.28;;;18.20;99.90;;;;;;5072973;28;20040;-64
2021/06/14 01:26:07;;;;;;;9.63;5.63;;;18.10;99.90;;;;;;5073853;28;20027;-64
2021/06/14 01:28:34;;;;;;;8.75;5.43;;;18.00;99.90;;;;;;5072892;28;20032;-63
2021/06/14 01:31:02;;;;;;;8.90;5.03;;;17.90;99.90;;;;;;5073457;28;20037;-62
2021/06/14 01:33:30;;;;;;;9.93;5.43;;;17.80;99.90;;;;;;5072831;28;20028;-63
2021/06/14 01:36:04;;;;;;;10.40;5.80;;;17.70;99.90;;;;;;5072381;28;20044;-63
2021/06/14 01:38:32;;;;;;;12.32;4.97;;;17.70;99.90;;;;;;5065411;28;20032;-63
2021/06/14 01:41:07;;;;;;;8.93;5.40;;;17.60;99.90;;;;;;5080981;28;20033;-64
2021/06/14 01:43:35;;;;;;;8.73;5.20;;;17.60;99.90;;;;;;5060426;28;20032;-64
2021/06/14 01:46:23;;;;;;;8.43;4.60;;;17.60;99.90;;;;;;5073020;28;20032;-63
2021/06/14 01:48:51;;;;;;;7.78;5.05;;;17.50;99.90;;;;;;5060674;28;20128;-63
2021/06/14 01:51:19;;;;;;;10.45;4.88;;;17.40;99.90;;;;;;5072637;28;20051;-62
2021/06/14 01:54:02;;;;;;;8.43;5.07;;;17.40;99.90;;;;;;5074712;28;20021;-61
2021/06/14 01:56:49;;;;;;;8.38;5.13;;;17.30;99.90;;;;;;5081078;28;20020;-63
2021/06/14 01:59:24;;;;;;;9.85;5.07;;;17.20;99.90;;;;;;5058633;28;20041;-63
2021/06/14 02:01:51;;;;;;;10.98;5.32;;;17.20;99.90;;;;;;5072175;28;20103;-62
2021/06/14 02:04:18;;;;;;;6.43;4.90;;;17.20;99.90;;;;;;5072846;28;20032;-62
2021/06/14 02:06:47;;;;;;;8.10;4.65;;;17.20;99.90;;;;;;5072925;28;20182;-62
2021/06/14 02:09:15;;;;;;;9.90;5.60;;;17.20;99.90;;;;;;5085884;28;20031;-61
2021/06/14 02:11:46;;;;;;;4.88;4.22;;;17.10;99.90;;;;;;5072836;28;20037;-63
2021/06/14 02:14:18;;;;;;;9.18;4.93;;;17.10;99.90;;;;;;5071855;28;20385;-62
2021/06/14 02:16:46;;;;;;;10.70;5.20;;;17.10;99.90;;;;;;5072559;28;20490;-63
2021/06/14 02:19:13;;;;;;;8.00;4.68;;;17.00;99.90;;;;;;5072987;28;20016;-64
2021/06/14 02:21:41;;;;;;;7.47;4.97;;;17.00;99.90;;;;;;5072896;28;20032;-61
2021/06/14 02:24:07;;;;;;;9.13;4.50;;;16.90;99.90;;;;;;5071642;28;20051;-62
2021/06/14 02:26:33;;;;;;;9.05;4.72;;;16.90;99.90;;;;;;5072892;28;20028;-63
2021/06/14 02:28:59;;;;;;;4.97;4.05;;;16.90;99.90;;;;;;5072029;28;20051;-62
2021/06/14 02:31:25;;;;;;;10.68;4.97;;;16.90;99.90;;;;;;5071947;28;20028;-61
2021/06/14 02:33:51;;;;;;;6.25;4.20;;;16.80;99.90;;;;;;5071962;28;20042;-61
2021/06/14 02:36:19;;;;;;;7.88;4.80;;;16.70;99.90;;;;;;5072416;28;20044;-62
2021/06/14 02:38:45;;;;;;;7.88;4.93;;;16.60;99.90;;;;;;5071758;28;20770;-62
2021/06/14 02:41:12;;;;;;;7.82;4.65;;;16.60;99.90;;;;;;5072187;28;20077;-62
2021/06/14 02:43:38;;;;;;;7.07;4.88;;;16.50;99.90;;;;;;5071796;28;20032;-61
2021/06/14 02:46:07;;;;;;;7.18;4.60;;;16.50;99.90;;;;;;5075206;28;20111;-61
2021/06/14 02:48:34;;;;;;;6.38;4.68;;;16.40;99.90;;;;;;5070487;28;20028;-60
2021/06/14 02:51:01;;;;;;;6.45;4.68;;;16.40;99.90;;;;;;5072183;28;20067;-62
2021/06/14 02:53:29;;;;;;;5.35;4.32;;;16.30;99.90;;;;;;5074803;28;20034;-62
2021/06/14 02:56:13;;;;;;;7.00;4.55;;;16.30;99.90;;;;;;5092394;28;20039;-60
2021/06/14 02:58:42;;;;;;;7.13;4.38;;;16.30;99.90;;;;;;5091308;28;20024;-61
2021/06/14 03:01:09;;;;;;;6.78;4.93;;;16.30;99.90;;;;;;5069323;28;20021;-62
2021/06/14 03:03:39;;;;;;;8.23;4.90;;;16.20;99.90;;;;;;5070912;28;20500;-61
2021/06/14 03:06:08;;;;;;;6.80;4.60;;;16.10;99.90;;;;;;5071278;28;20021;-61
2021/06/14 03:08:36;;;;;;;7.95;4.40;;;16.10;99.90;;;;;;5071055;28;20035;-62
2021/06/14 03:11:02;;;;;;;9.80;5.15;;;16.00;99.90;;;;;;5071957;28;20056;-61
2021/06/14 03:13:28;;;;;;;8.77;4.93;;;16.00;99.90;;;;;;5079162;28;20067;-63
2021/06/14 03:15:54;;;;;;;7.40;4.70;;;16.00;99.90;;;;;;5071624;28;20451;-61
2021/06/14 03:18:22;;;;;;;6.93;4.93;;;15.90;99.90;;;;;;5070352;28;20056;-63
2021/06/14 03:20:50;;;;;;;7.15;4.50;;;15.90;99.90;;;;;;5071695;28;20525;-62
2021/06/14 03:23:16;;;;;;;8.77;4.97;;;15.90;99.90;;;;;;5080507;28;20088;-63
2021/06/14 03:25:42;;;;;;;8.93;4.63;;;15.90;99.90;;;;;;5072095;28;20028;-63
2021/06/14 03:28:10;;;;;;;5.38;4.68;;;15.80;99.90;;;;;;5070928;28;20505;-62
2021/06/14 03:30:39;;;;;;;8.65;4.88;;;15.70;99.90;;;;;;5071086;28;20055;-61
2021/06/14 03:33:06;;;;;;;7.60;4.78;;;15.70;99.90;;;;;;5070446;28;20457;-63
2021/06/14 03:35:32;;;;;;;8.80;4.85;;;15.70;99.90;;;;;;5071223;28;20029;-63
2021/06/14 03:37:58;;;;;;;10.60;4.90;;;15.60;99.90;;;;;;5069553;28;20024;-63
2021/06/14 03:40:24;;;;;;;8.23;4.68;;;15.50;99.90;;;;;;5071217;28;20570;-63
2021/06/14 03:42:55;;;;;;;9.38;4.88;;;15.50;99.90;;;;;;5069368;28;20037;-61
2021/06/14 03:45:21;;;;;;;8.40;4.43;;;15.50;99.90;;;;;;5071298;28;20017;-61
2021/06/14 03:47:51;;;;;;;9.10;5.13;;;15.50;99.90;;;;;;5070068;28;20483;-61
2021/06/14 03:50:17;;;;;;;7.68;4.70;;;15.40;99.90;;;;;;5071560;28;20040;-61
2021/06/14 03:52:43;;;;;;;10.20;4.78;;;15.40;99.90;;;;;;5070089;28;20081;-61
2021/06/14 03:55:11;;;;;;;11.02;4.97;;;15.30;99.90;;;;;;5071118;28;20382;-63
2021/06/14 03:57:38;;;;;;;10.80;5.03;;;15.30;99.90;;;;;;5070341;28;20062;-63
2021/06/14 04:00:07;;;;;;;10.57;5.20;;;15.40;99.90;;;;;;5070994;28;20178;-62
2021/06/14 04:02:33;;;;;;;9.40;5.10;;;15.40;99.90;;;;;;5072481;28;20034;-62
2021/06/14 04:04:59;;;;;;;9.55;5.13;;;15.40;99.90;;;;;;5069142;28;20036;-62
2021/06/14 04:07:24;;;;;;;10.52;4.72;;;15.30;99.90;;;;;;5072854;28;20024;-63
2021/06/14 04:09:50;;;;;;;13.90;5.45;;;15.30;99.90;;;;;;5069951;28;20032;-61
2021/06/14 04:12:16;;;;;;;12.07;5.50;;;15.40;99.90;;;;;;5071062;28;20033;-60
2021/06/14 04:14:44;;;;;;;13.77;6.50;;;15.60;99.90;;;;;;5070023;28;20029;-61
2021/06/14 04:17:10;;;;;;;11.27;6.45;;;15.90;99.90;;;;;;5074755;28;20039;-62
2021/06/14 04:19:36;;;;;;;14.60;6.80;;;16.20;99.90;;;;;;5069910;28;20041;-61
2021/06/14 04:22:02;;;;;;;11.45;6.47;;;16.40;99.90;;;;;;5070719;28;20020;-62
2021/06/14 04:24:28;;;;;;;13.40;6.43;;;16.50;99.90;;;;;;5070218;28;20037;-63
2021/06/14 04:26:54;;;;;;;11.30;6.13;;;16.50;99.90;;;;;;5073580;28;20082;-61
2021/06/14 04:29:20;;;;;;;16.38;6.72;;;16.60;99.90;;;;;;5069844;28;20052;-63
2021/06/14 04:31:45;;;;;;;23.02;6.97;;;16.80;99.90;;;;;;5070150;28;20047;-63
2021/06/14 04:34:11;;;;;;;17.48;6.40;;;16.90;99.90;;;;;;5070380;28;20028;-63
2021/06/14 04:36:37;;;;;;;12.25;5.93;;;16.90;99.90;;;;;;5070631;28;20016;-62
2021/06/14 04:39:04;;;;;;;16.20;6.50;;;16.90;99.90;;;;;;5069619;28;20028;-62
2021/06/14 04:41:30;;;;;;;12.13;6.05;;;17.00;99.90;;;;;;5070634;28;20228;-62
2021/06/14 04:43:55;;;;;;;12.23;6.28;;;17.00;99.90;;;;;;5069685;28;20032;-62
2021/06/14 04:46:22;;;;;;;10.93;6.03;;;17.00;99.90;;;;;;5070467;28;20066;-60
2021/06/14 04:48:47;;;;;;;16.00;6.07;;;17.00;99.90;;;;;;5071340;28;20078;-61
2021/06/14 04:51:13;;;;;;;11.02;6.00;;;17.00;99.90;;;;;;5074691;28;20024;-61
2021/06/14 04:53:40;;;;;;;10.55;6.18;;;17.10;99.90;;;;;;5074018;28;20028;-62
2021/06/14 04:56:06;;;;;;;15.90;6.88;;;17.10;99.90;;;;;;5075010;28;20085;-61
2021/06/14 04:58:33;;;;;;;53.17;7.43;;;17.20;99.90;;;;;;5074333;28;20397;-60
2021/06/14 05:00:59;;;;;;;19.38;6.70;;;17.20;99.90;;;;;;5082541;28;20056;-62
2021/06/14 05:03:25;;;;;;;18.45;7.28;;;17.30;99.90;;;;;;5073159;28;20071;-61
2021/06/14 05:05:51;;;;;;;11.07;6.43;;;17.30;99.90;;;;;;5072859;28;20119;-61
2021/06/14 05:08:18;;;;;;;15.07;6.32;;;17.40;99.90;;;;;;5073572;28;20115;-62
2021/06/14 05:10:45;;;;;;;12.75;6.75;;;17.40;99.90;;;;;;5074276;28;20060;-62
2021/06/14 05:13:11;;;;;;;13.10;6.07;;;17.40;99.90;;;;;;5073538;28;20032;-61
2021/06/14 05:15:37;;;;;;;12.52;5.90;;;17.50;99.90;;;;;;5074128;28;20090;-61
2021/06/14 05:18:03;;;;;;;14.02;6.30;;;17.50;99.90;;;;;;5074175;28;20032;-61
2021/06/14 05:20:30;;;;;;;16.52;6.47;;;17.50;99.90;;;;;;5073189;28;20032;-63
2021/06/14 05:22:57;;;;;;;17.75;6.93;;;17.50;99.90;;;;;;5074007;28;20037;-62
2021/06/14 05:25:23;;;;;;;9.85;6.05;;;17.60;99.90;;;;;;5071588;28;20028;-62
2021/06/14 05:27:48;;;;;;;28.20;7.32;;;17.60;99.90;;;;;;5077475;28;20067;-61
2021/06/14 05:30:15;;;;;;;14.73;6.22;;;17.70;99.90;;;;;;5072524;28;20467;-61
2021/06/14 05:32:41;;;;;;;17.92;6.90;;;17.90;99.90;;;;;;5072994;28;20032;-62
2021/06/14 05:35:08;;;;;;;13.63;6.68;;;17.80;99.90;;;;;;5071899;28;20449;-62
2021/06/14 05:37:34;;;;;;;14.45;6.93;;;18.00;99.90;;;;;;5072654;28;20032;-61
2021/06/14 05:40:00;;;;;;;18.75;7.18;;;18.00;99.90;;;;;;5071801;28;20085;-61
2021/06/14 05:42:25;;;;;;;27.80;7.82;;;18.00;99.90;;;;;;5081828;28;20122;-61
2021/06/14 05:44:51;;;;;;;14.38;6.57;;;18.10;99.90;;;;;;5093403;28;20047;-61
2021/06/14 05:47:17;;;;;;;18.35;7.22;;;18.20;99.90;;;;;;5074601;28;20462;-62
2021/06/14 05:49:43;;;;;;;21.15;7.10;;;18.20;99.90;;;;;;5072750;28;20028;-63
2021/06/14 05:52:08;;;;;;;13.40;7.05;;;18.30;99.90;;;;;;5069857;28;20044;-63
2021/06/14 05:54:34;;;;;;;16.38;6.78;;;18.40;99.90;;;;;;5072817;28;20051;-64
2021/06/14 05:57:00;;;;;;;14.85;6.75;;;18.50;99.90;;;;;;5073417;28;20056;-62
2021/06/14 05:59:26;;;;;;;16.48;7.25;;;18.60;99.90;;;;;;5072075;28;20041;-63
2021/06/14 06:01:51;;;;;;;13.77;6.90;;;18.60;99.90;;;;;;5072864;28;20113;-63
2021/06/14 06:04:19;;;;;;;23.67;8.63;;;18.60;99.90;;;;;;5072572;28;20023;-61
2021/06/14 06:06:45;;;;;;;14.43;7.13;;;18.70;99.90;;;;;;5073129;28;20842;-61
2021/06/14 06:09:11;;;;;;;12.43;6.70;;;18.70;99.90;;;;;;5071959;28;20120;-63
2021/06/14 06:11:36;;;;;;;21.08;8.20;;;18.80;99.90;;;;;;5073129;28;20132;-63
2021/06/14 06:14:02;;;;;;;15.23;7.78;;;18.90;99.90;;;;;;5072176;28;20033;-63
2021/06/14 06:16:28;;;;;;;24.50;7.55;;;19.00;99.90;;;;;;5072614;28;20469;-63
2021/06/14 06:18:54;;;;;;;17.33;6.85;;;19.00;99.90;;;;;;5071909;28;20032;-63
2021/06/14 06:21:21;;;;;;;41.55;8.32;;;19.10;99.90;;;;;;5071185;28;20039;-63
2021/06/14 06:23:46;;;;;;;15.77;6.45;;;19.10;99.90;;;;;;5070348;28;20051;-62
2021/06/14 06:26:12;;;;;;;14.45;6.25;;;19.20;99.90;;;;;;5071955;28;20761;-63
2021/06/14 06:28:41;;;;;;;13.50;6.18;;;19.40;99.90;;;;;;5072263;28;20057;-63
2021/06/14 06:31:08;;;;;;;12.32;6.20;;;19.40;99.90;;;;;;5077586;28;20050;-62
2021/06/14 06:33:34;;;;;;;11.10;6.05;;;19.50;99.90;;;;;;5074588;28;20032;-65
2021/06/14 06:36:03;;;;;;;15.45;6.40;;;19.70;99.90;;;;;;5071454;28;20040;-64
2021/06/14 06:38:29;;;;;;;15.95;6.18;;;20.10;99.90;;;;;;5071934;28;20024;-62
2021/06/14 06:40:55;;;;;;;17.35;5.82;;;20.50;99.90;;;;;;5071244;28;20394;-62
2021/06/14 06:43:21;;;;;;;11.38;5.40;;;20.90;99.90;;;;;;5081560;28;20032;-62
2021/06/14 06:45:47;;;;;;;18.23;5.65;;;21.40;99.90;;;;;;5070638;28;20756;-63
2021/06/14 06:48:12;;;;;;;11.63;4.97;;;21.80;99.90;;;;;;5071597;28;20025;-63
2021/06/14 06:50:38;;;;;;;16.23;5.45;;;22.10;99.90;;;;;;5071034;28;20501;-63
2021/06/14 06:53:04;;;;;;;12.35;4.97;;;22.50;99.90;;;;;;5071696;28;20035;-63
2021/06/14 06:55:30;;;;;;;8.88;5.13;;;22.80;99.90;;;;;;5071213;28;20096;-64
2021/06/14 06:57:56;;;;;;;14.85;5.13;;;22.90;99.90;;;;;;5085450;28;20418;-63
2021/06/14 07:00:23;;;;;;;18.05;5.43;;;23.10;99.90;;;;;;5073565;28;20032;-62
2021/06/14 07:02:49;;;;;;;11.98;5.22;;;23.10;99.90;;;;;;5071339;28;20028;-62
2021/06/14 07:05:15;;;;;;;12.88;5.00;;;23.40;99.90;;;;;;5072299;28;20467;-64
2021/06/14 07:07:42;;;;;;;11.07;5.00;;;23.60;99.90;;;;;;5072426;28;20032;-65
2021/06/14 07:10:09;;;;;;;13.60;5.10;;;23.70;99.90;;;;;;5070185;28;20382;-62
2021/06/14 07:12:39;;;;;;;11.60;4.97;;;24.00;99.90;;;;;;5070807;28;20445;-62
2021/06/14 07:15:12;;;;;;;11.32;5.07;;;24.10;99.90;;;;;;5070766;28;20040;-62
2021/06/14 07:17:43;;;;;;;13.50;4.57;;;24.30;99.90;;;;;;5077188;28;20099;-63
2021/06/14 07:20:11;;;;;;;9.77;4.53;;;24.30;99.90;;;;;;5070573;28;20032;-62
2021/06/14 07:22:38;;;;;;;10.00;4.40;;;24.60;99.90;;;;;;5071274;28;20054;-62
2021/06/14 07:25:06;;;;;;;10.23;4.40;;;24.80;99.90;;;;;;5070411;28;20085;-64
2021/06/14 07:27:32;;;;;;;9.45;4.55;;;24.80;99.90;;;;;;5076211;28;20063;-62
2021/06/14 07:29:59;;;;;;;9.43;4.57;;;24.90;99.90;;;;;;5069730;28;20415;-63
2021/06/14 07:32:24;;;;;;;11.55;4.55;;;24.70;99.90;;;;;;5070018;28;20037;-62
2021/06/14 07:34:50;;;;;;;10.57;4.80;;;24.70;99.90;;;;;;5074226;28;20546;-63
2021/06/14 07:37:18;;;;;;;15.82;5.55;;;24.90;99.90;;;;;;5071445;28;20374;-62
2021/06/14 07:39:44;;;;;;;13.52;4.50;;;25.10;99.90;;;;;;5070301;28;20044;-63
2021/06/14 07:42:11;;;;;;;11.75;4.70;;;25.20;99.90;;;;;;5072711;28;20493;-62
2021/06/14 07:44:36;;;;;;;9.95;4.57;;;25.30;99.90;;;;;;5070357;28;20497;-64
2021/06/14 07:47:03;;;;;;;9.23;4.30;;;25.50;99.90;;;;;;5060997;28;20025;-63
2021/06/14 07:49:29;;;;;;;14.25;4.25;;;25.60;99.90;;;;;;5066069;28;20039;-63
2021/06/14 07:51:55;;;;;;;15.02;4.97;;;25.70;99.90;;;;;;5071123;28;20036;-62
2021/06/14 07:54:21;;;;;;;7.93;4.10;;;25.60;99.90;;;;;;5070013;28;20028;-63
2021/06/14 07:56:48;;;;;;;17.63;5.10;;;25.80;99.90;;;;;;5067311;28;20485;-64
2021/06/14 07:59:14;;;;;;;11.52;4.53;;;25.90;99.90;;;;;;5064856;28;20031;-64
2021/06/14 08:01:41;;;;;;;10.65;4.50;;;26.00;99.90;;;;;;5075561;28;20390;-63
2021/06/14 08:04:07;;;;;;;8.77;4.00;;;25.90;99.90;;;;;;5070114;28;20060;-63
2021/06/14 08:06:34;;;;;;;13.55;4.70;;;25.60;99.90;;;;;;5070006;28;20090;-63
2021/06/14 08:09:01;;;;;;;13.85;4.50;;;25.60;99.90;;;;;;5084424;28;20029;-63
2021/06/14 08:11:28;;;;;;;9.45;4.32;;;25.80;99.90;;;;;;5070003;28;20033;-64
2021/06/14 08:13:54;;;;;;;8.50;3.60;;;26.00;99.90;;;;;;5070677;28;20067;-62
2021/06/14 08:16:20;;;;;;;9.15;4.32;;;25.90;99.90;;;;;;5069976;28;20441;-62
2021/06/14 08:18:49;;;;;;;11.75;4.20;;;26.00;99.90;;;;;;5069749;28;20028;-63
2021/06/14 08:26:31;;;;;;;15.55;4.93;;;26.40;99.90;;;;;;5074266;28;20039;-65
2021/06/14 08:28:59;;;;;;;16.15;4.57;;;26.30;99.90;;;;;;5074798;28;20044;-63
2021/06/14 08:31:27;;;;;;;11.55;4.32;;;26.60;99.90;;;;;;5083480;28;20024;-62
2021/06/14 08:33:53;;;;;;;7.82;3.47;;;26.40;99.90;;;;;;5077887;28;20055;-64
2021/06/14 08:36:20;;;;;;;9.98;4.63;;;26.50;99.90;;;;;;5074262;28;20037;-61
2021/06/14 08:38:47;;;;;;;11.15;4.25;;;26.60;99.90;;;;;;5073967;28;20043;-62
2021/06/14 08:41:15;;;;;;;10.10;4.68;;;26.60;99.90;;;;;;5072169;28;20052;-64
2021/06/14 08:43:41;;;;;;;20.13;4.60;;;26.70;99.90;;;;;;5075658;28;20119;-63
2021/06/14 08:46:08;;;;;;;12.98;4.75;;;26.90;99.90;;;;;;5084679;28;20036;-63
2021/06/14 08:48:35;;;;;;;14.45;4.68;;;26.90;99.90;;;;;;5085558;28;20059;-63
2021/06/14 08:51:00;;;;;;;14.30;4.25;;;27.00;99.90;;;;;;5074967;28;20394;-62
2021/06/14 08:53:26;;;;;;;11.35;4.22;;;26.90;99.90;;;;;;5083186;28;20032;-64
2021/06/14 08:55:52;;;;;;;8.73;3.80;;;26.70;99.90;;;;;;5073383;28;20363;-63
2021/06/14 08:58:18;;;;;;;11.93;3.78;;;27.00;99.90;;;;;;5087246;28;20050;-63
2021/06/14 09:00:44;;;;;;;10.63;3.80;;;27.20;99.90;;;;;;5073685;28;20052;-64
2021/06/14 09:03:10;;;;;;;12.77;4.20;;;27.20;99.90;;;;;;5073382;28;20040;-64
2021/06/14 09:05:35;;;;;;;16.98;4.57;;;27.30;99.90;;;;;;5073262;28;20032;-63
2021/06/14 09:08:05;;;;;;;358.98;32.67;;;27.30;99.90;;;;;;5073865;28;20028;-64
2021/06/14 09:10:34;;;;;;;78.70;8.15;;;27.40;99.90;;;;;;5074866;28;20056;-63
2021/06/14 09:13:23;;;;;;;411.10;37.83;;;27.20;99.90;;;;;;5077667;28;20474;-64
2021/06/14 09:16:03;;;;;;;13.48;3.88;;;27.30;99.90;;;;;;5086020;28;20482;-65
2021/06/14 09:18:29;;;;;;;10.85;3.80;;;27.30;99.90;;;;;;5069869;28;20115;-65
2021/06/14 09:21:10;;;;;;;21.48;4.50;;;27.50;99.90;;;;;;5077041;28;20028;-62
2021/06/14 09:23:39;;;;;;;11.88;3.80;;;27.70;99.90;;;;;;5078401;28;20021;-63
2021/06/14 09:26:05;;;;;;;9.73;3.90;;;27.50;99.90;;;;;;5076325;28;20037;-63
2021/06/14 09:28:31;;;;;;;16.20;4.57;;;27.60;99.90;;;;;;5073362;28;20021;-62
2021/06/14 09:30:59;;;;;;;8.57;3.50;;;27.80;99.90;;;;;;5077899;28;20028;-63
2021/06/14 09:33:25;;;;;;;12.80;3.53;;;27.90;99.90;;;;;;5077435;28;20107;-62
2021/06/14 09:35:53;;;;;;;9.13;4.60;;;28.30;99.90;;;;;;5075204;28;20021;-61
2021/06/14 09:38:20;;;;;;;10.23;3.92;;;28.30;99.90;;;;;;5080310;28;20116;-62
2021/06/14 09:40:53;;;;;;;11.38;4.63;;;28.20;99.90;;;;;;5085388;28;20024;-63
2021/06/14 09:43:39;;;;;;;14.05;4.13;;;28.30;99.90;;;;;;5072191;28;20043;-65
2021/06/14 09:46:21;;;;;;;10.23;4.03;;;28.50;99.90;;;;;;5070699;28;20029;-62
2021/06/14 09:48:51;;;;;;;9.70;4.15;;;28.40;99.90;;;;;;5077501;28;20111;-64
2021/06/14 09:51:18;;;;;;;9.55;3.97;;;28.40;99.90;;;;;;5071357;28;20475;-62
2021/06/14 09:53:54;;;;;;;18.27;4.78;;;28.30;99.90;;;;;;5081033;28;20142;-64
2021/06/14 09:56:35;;;;;;;10.75;3.88;;;28.30;99.90;;;;;;5084494;28;20020;-62
2021/06/14 09:59:01;;;;;;;8.00;3.47;;;28.40;99.90;;;;;;5073351;28;20108;-62
2021/06/14 10:01:28;;;;;;;5.95;3.42;;;28.50;99.90;;;;;;5074837;28;20120;-62
2021/06/14 10:03:56;;;;;;;12.23;3.88;;;28.60;99.90;;;;;;5083922;28;20435;-62
2021/06/14 10:06:31;;;;;;;8.48;3.50;;;28.70;99.90;;;;;;5083224;28;20355;-63
2021/06/14 10:08:57;;;;;;;8.02;3.92;;;28.70;99.90;;;;;;5073223;28;20028;-62
2021/06/14 10:11:30;;;;;;;16.05;4.18;;;28.60;99.90;;;;;;5073152;28;20024;-63
2021/06/14 10:14:04;;;;;;;16.25;4.53;;;28.50;99.90;;;;;;5076187;28;20036;-62
2021/06/14 10:16:31;;;;;;;7.18;3.20;;;28.70;99.90;;;;;;5071060;28;20098;-62
2021/06/14 10:18:58;;;;;;;9.85;3.47;;;28.90;99.90;;;;;;5078878;28;20394;-63
2021/06/14 10:21:31;;;;;;;15.30;4.45;;;28.80;99.90;;;;;;5072323;28;20052;-62
2021/06/14 10:24:01;;;;;;;9.68;3.95;;;28.70;99.90;;;;;;5070601;28;20541;-61
2021/06/14 10:26:29;;;;;;;6.38;3.10;;;28.70;99.90;;;;;;5072219;28;20067;-64
2021/06/14 10:28:55;;;;;;;6.47;3.03;;;28.70;99.90;;;;;;5072496;28;20040;-61
2021/06/14 10:31:22;;;;;;;8.07;3.05;;;28.90;99.90;;;;;;5081491;28;20085;-62
2021/06/14 10:33:50;;;;;;;9.63;2.97;;;28.80;99.90;;;;;;5076081;28;20542;-62
2021/06/14 10:36:20;;;;;;;11.98;3.15;;;29.10;99.90;;;;;;5077797;28;20047;-64
2021/06/14 10:38:48;;;;;;;5.78;3.05;;;29.10;99.90;;;;;;5072666;28;20028;-63
2021/06/14 10:41:14;;;;;;;7.30;2.92;;;29.20;99.90;;;;;;5079293;28;20028;-63
2021/06/14 10:43:41;;;;;;;9.70;3.17;;;29.20;99.90;;;;;;5073672;28;20490;-63
2021/06/14 10:46:11;;;;;;;5.68;2.92;;;29.00;99.90;;;;;;5080250;28;20096;-63
2021/06/14 10:48:38;;;;;;;10.75;2.85;;;28.80;99.90;;;;;;5076198;28;20139;-64
2021/06/14 10:51:15;;;;;;;7.18;2.75;;;28.80;99.90;;;;;;5070537;28;20028;-62
2021/06/14 10:53:41;;;;;;;5.75;3.00;;;28.70;99.90;;;;;;5079133;28;20082;-63
2021/06/14 10:56:08;;;;;;;6.75;2.90;;;28.40;99.90;;;;;;5073821;28;20378;-61
2021/06/14 10:58:34;;;;;;;4.78;2.83;;;28.70;99.90;;;;;;5073053;28;20169;-63
2021/06/14 11:01:05;;;;;;;6.10;3.15;;;28.80;99.90;;;;;;5064024;28;20025;-63
2021/06/14 11:03:41;;;;;;;8.23;2.83;;;28.60;99.90;;;;;;5072330;28;20036;-64
2021/06/14 11:06:21;;;;;;;5.53;2.83;;;28.40;99.90;;;;;;5077812;28;20028;-62
2021/06/14 11:09:06;;;;;;;10.98;3.03;;;28.40;99.90;;;;;;5071043;28;20051;-63
2021/06/14 11:12:02;;;;;;;6.13;2.80;;;28.70;99.90;;;;;;5071293;28;20103;-63
2021/06/14 11:14:28;;;;;;;6.80;3.00;;;28.90;99.90;;;;;;5068148;28;20112;-62
2021/06/14 11:16:57;;;;;;;19.85;3.30;;;28.80;99.90;;;;;;5067604;28;20554;-62
2021/06/14 11:19:34;;;;;;;7.82;3.28;;;28.80;99.90;;;;;;5065432;28;20025;-63
2021/06/14 11:22:00;;;;;;;8.55;3.58;;;29.00;99.90;;;;;;5066456;28;20041;-64
2021/06/14 11:24:37;;;;;;;8.73;3.33;;;29.20;99.90;;;;;;5072509;28;20461;-63
2021/06/14 11:27:05;;;;;;;6.70;3.30;;;29.10;99.90;;;;;;5079031;28;20020;-63
2021/06/14 11:29:41;;;;;;;11.98;3.20;;;29.30;99.90;;;;;;5072092;28;20059;-63
2021/06/14 11:32:08;;;;;;;9.13;3.28;;;29.30;99.90;;;;;;5075408;28;20033;-65
2021/06/14 11:34:41;;;;;;;5.85;3.05;;;29.20;99.90;;;;;;5079822;28;20032;-63
2021/06/14 11:37:08;;;;;;;4.90;3.07;;;29.10;99.90;;;;;;5075393;28;20421;-63
2021/06/14 11:39:35;;;;;;;10.23;3.40;;;29.10;99.90;;;;;;5071309;28;20056;-62
2021/06/14 11:42:23;;;;;;;7.45;3.30;;;29.00;99.90;;;;;;5070583;28;20112;-62
2021/06/14 11:44:59;;;;;;;6.40;3.03;;;29.10;99.90;;;;;;5076112;28;20045;-62
2021/06/14 11:47:28;;;;;;;5.95;2.83;;;28.80;99.90;;;;;;5071792;28;20029;-63
2021/06/14 11:49:59;;;;;;;8.25;2.95;;;28.80;99.90;;;;;;5070941;28;20025;-63
2021/06/14 11:52:32;;;;;;;7.70;2.90;;;29.00;99.90;;;;;;5067656;28;20085;-63
2021/06/14 11:55:02;;;;;;;10.23;3.47;;;29.10;99.90;;;;;;5071488;28;20062;-63
2021/06/14 11:57:33;;;;;;;7.97;3.10;;;29.30;99.90;;;;;;5078294;28;20024;-63
2021/06/14 12:00:00;;;;;;;5.78;2.88;;;29.00;99.90;;;;;;5079645;28;20401;-63
2021/06/14 12:02:28;;;;;;;8.73;2.90;;;28.60;99.90;;;;;;5079707;28;20036;-63
2021/06/14 12:04:59;;;;;;;6.68;2.63;;;28.70;99.90;;;;;;5069846;28;20107;-64
2021/06/14 12:07:38;;;;;;;5.22;2.60;;;28.50;99.90;;;;;;5071544;28;20885;-64
2021/06/14 12:10:14;;;;;;;5.85;2.88;;;28.60;99.90;;;;;;5060376;28;20447;-64
2021/06/14 12:12:42;;;;;;;8.63;2.55;;;28.90;99.90;;;;;;5056971;28;20130;-63
2021/06/14 12:15:10;;;;;;;5.05;2.40;;;29.10;99.90;;;;;;5070670;28;20028;-65
2021/06/14 12:17:41;;;;;;;10.45;3.15;;;29.30;99.90;;;;;;5070060;28;20024;-63
2021/06/14 12:20:10;;;;;;;7.95;2.78;;;29.50;99.90;;;;;;5070628;28;20085;-65
2021/06/14 12:22:38;;;;;;;8.65;3.20;;;29.70;99.90;;;;;;5073159;28;20043;-63
2021/06/14 12:25:08;;;;;;;6.07;2.60;;;29.70;99.90;;;;;;5076475;28;20036;-63
2021/06/14 12:27:34;;;;;;;5.28;2.67;;;29.70;99.90;;;;;;5068942;28;20037;-64
2021/06/14 12:30:03;;;;;;;10.50;3.72;;;29.50;99.90;;;;;;5073107;28;20383;-64
2021/06/14 12:32:32;;;;;;;4.97;2.70;;;29.60;99.90;;;;;;5070449;28;20470;-64
2021/06/14 12:35:00;;;;;;;6.68;2.53;;;29.50;99.90;;;;;;5070775;28;20033;-62
2021/06/14 12:37:26;;;;;;;23.10;3.40;;;29.70;99.90;;;;;;5070016;28;20020;-64
2021/06/14 12:40:00;;;;;;;6.82;2.50;;;29.70;99.90;;;;;;5071669;28;20383;-64
2021/06/14 12:42:26;;;;;;;5.60;2.67;;;29.40;99.90;;;;;;5084444;28;20696;-66
2021/06/14 12:45:03;;;;;;;5.68;2.33;;;29.50;99.90;;;;;;5081882;28;20040;-64
2021/06/14 12:47:31;;;;;;;5.38;2.10;;;29.70;99.90;;;;;;5066073;28;20029;-63
2021/06/14 12:50:01;;;;;;;8.48;2.20;;;29.80;99.90;;;;;;5070695;28;20024;-63
2021/06/14 12:52:30;;;;;;;5.32;1.95;;;29.70;99.90;;;;;;5069609;28;20043;-64